sensor_id;sensor_type;location;lat;lon;timestamp;P1;durP1;ratioP1;P2;durP2;ratioP2
6564;SDS011;3316;44.118;27.258;2023-05-14T00:00:58;6.90;;;4.47;;
6564;SDS011;3316;44.118;27.258;2023-05-14T00:03:24;8.20;;;4.33;;
6564;SDS011;3316;44.118;27.258;2023-05-14T00:05:49;11.07;;;4.80;;
6564;SDS011;3316;44.118;27.258;2023-05-14T00:08:15;10.43;;;4.30;;
6564;SDS011;3316;44.118;27.258;2023-05-14T00:10:40;7.17;;;4.73;;
6564;SDS011;3316;44.118;27.258;2023-05-14T00:13:06;7.93;;;4.53;;
6564;SDS011;3316;44.118;27.258;2023-05-14T00:15:31;6.37;;;5.00;;
6564;SDS011;3316;44.118;27.258;2023-05-14T00:17:56;7.47;;;4.43;;
6564;SDS011;3316;44.118;27.258;2023-05-14T00:20:22;6.63;;;5.30;;
6564;SDS011;3316;44.118;27.258;2023-05-14T00:22:47;7.27;;;4.60;;
6564;SDS011;3316;44.118;27.258;2023-05-14T00:25:13;8.67;;;4.60;;
6564;SDS011;3316;44.118;27.258;2023-05-14T00:27:38;8.63;;;4.83;;
6564;SDS011;3316;44.118;27.258;2023-05-14T00:30:04;7.13;;;4.70;;
6564;SDS011;3316;44.118;27.258;2023-05-14T00:32:33;13.23;;;5.03;;
6564;SDS011;3316;44.118;27.258;2023-05-14T00:34:59;8.33;;;4.70;;
6564;SDS011;3316;44.118;27.258;2023-05-14T00:37:24;11.93;;;4.67;;
6564;SDS011;3316;44.118;27.258;2023-05-14T00:39:50;7.13;;;4.43;;
6564;SDS011;3316;44.118;27.258;2023-05-14T00:42:15;5.87;;;4.40;;
6564;SDS011;3316;44.118;27.258;2023-05-14T00:44:40;7.30;;;4.83;;
6564;SDS011;3316;44.118;27.258;2023-05-14T00:47:06;7.70;;;5.10;;
6564;SDS011;3316;44.118;27.258;2023-05-14T00:49:32;11.17;;;5.13;;
6564;SDS011;3316;44.118;27.258;2023-05-14T00:51:58;7.43;;;5.43;;
6564;SDS011;3316;44.118;27.258;2023-05-14T00:54:24;6.00;;;4.97;;
6564;SDS011;3316;44.118;27.258;2023-05-14T00:56:50;6.23;;;4.70;;
6564;SDS011;3316;44.118;27.258;2023-05-14T00:59:18;5.50;;;4.83;;
6564;SDS011;3316;44.118;27.258;2023-05-14T01:01:43;9.37;;;4.97;;
6564;SDS011;3316;44.118;27.258;2023-05-14T01:04:09;6.63;;;5.07;;
6564;SDS011;3316;44.118;27.258;2023-05-14T01:09:35;10.03;;;5.90;;
6564;SDS011;3316;44.118;27.258;2023-05-14T01:12:25;8.13;;;6.73;;
6564;SDS011;3316;44.118;27.258;2023-05-14T01:17:37;7.43;;;5.23;;
6564;SDS011;3316;44.118;27.258;2023-05-14T01:20:07;9.63;;;5.47;;
6564;SDS011;3316;44.118;27.258;2023-05-14T01:22:33;10.77;;;6.17;;
6564;SDS011;3316;44.118;27.258;2023-05-14T01:24:58;9.27;;;6.43;;
6564;SDS011;3316;44.118;27.258;2023-05-14T01:27:24;8.87;;;5.87;;
6564;SDS011;3316;44.118;27.258;2023-05-14T01:30:06;8.60;;;5.67;;
6564;SDS011;3316;44.118;27.258;2023-05-14T01:32:38;8.13;;;5.43;;
6564;SDS011;3316;44.118;27.258;2023-05-14T01:35:04;7.37;;;5.37;;
6564;SDS011;3316;44.118;27.258;2023-05-14T01:37:32;8.40;;;5.07;;
6564;SDS011;3316;44.118;27.258;2023-05-14T01:39:57;7.33;;;5.40;;
6564;SDS011;3316;44.118;27.258;2023-05-14T01:42:24;9.60;;;5.60;;
6564;SDS011;3316;44.118;27.258;2023-05-14T01:44:50;8.70;;;5.63;;
6564;SDS011;3316;44.118;27.258;2023-05-14T01:47:15;8.47;;;5.83;;
6564;SDS011;3316;44.118;27.258;2023-05-14T01:49:41;6.87;;;5.57;;
6564;SDS011;3316;44.118;27.258;2023-05-14T01:52:06;9.90;;;5.43;;
6564;SDS011;3316;44.118;27.258;2023-05-14T01:54:32;10.40;;;6.00;;
6564;SDS011;3316;44.118;27.258;2023-05-14T01:56:58;8.40;;;6.37;;
6564;SDS011;3316;44.118;27.258;2023-05-14T01:59:23;7.10;;;5.43;;
6564;SDS011;3316;44.118;27.258;2023-05-14T02:01:49;7.13;;;5.57;;
6564;SDS011;3316;44.118;27.258;2023-05-14T02:04:14;15.03;;;6.37;;
6564;SDS011;3316;44.118;27.258;2023-05-14T02:06:40;9.03;;;5.53;;
6564;SDS011;3316;44.118;27.258;2023-05-14T02:09:05;8.27;;;5.93;;
6564;SDS011;3316;44.118;27.258;2023-05-14T02:11:31;7.70;;;5.77;;
6564;SDS011;3316;44.118;27.258;2023-05-14T02:13:56;9.80;;;5.63;;
6564;SDS011;3316;44.118;27.258;2023-05-14T02:16:22;8.63;;;5.53;;
6564;SDS011;3316;44.118;27.258;2023-05-14T02:18:47;7.17;;;6.10;;
6564;SDS011;3316;44.118;27.258;2023-05-14T02:21:13;8.17;;;6.23;;
6564;SDS011;3316;44.118;27.258;2023-05-14T02:23:38;11.23;;;7.07;;
6564;SDS011;3316;44.118;27.258;2023-05-14T02:26:04;9.67;;;7.00;;
6564;SDS011;3316;44.118;27.258;2023-05-14T02:28:29;7.67;;;6.00;;
6564;SDS011;3316;44.118;27.258;2023-05-14T02:31:00;8.37;;;5.90;;
6564;SDS011;3316;44.118;27.258;2023-05-14T02:33:26;10.83;;;6.40;;
6564;SDS011;3316;44.118;27.258;2023-05-14T02:35:52;8.23;;;6.17;;
6564;SDS011;3316;44.118;27.258;2023-05-14T02:38:17;7.27;;;5.67;;
6564;SDS011;3316;44.118;27.258;2023-05-14T02:40:43;8.27;;;5.87;;
6564;SDS011;3316;44.118;27.258;2023-05-14T02:43:09;7.97;;;5.70;;
6564;SDS011;3316;44.118;27.258;2023-05-14T02:45:34;10.17;;;6.40;;
6564;SDS011;3316;44.118;27.258;2023-05-14T02:48:00;8.93;;;5.90;;
6564;SDS011;3316;44.118;27.258;2023-05-14T02:50:25;8.93;;;6.03;;
6564;SDS011;3316;44.118;27.258;2023-05-14T02:52:51;7.30;;;5.63;;
6564;SDS011;3316;44.118;27.258;2023-05-14T02:55:16;7.13;;;5.90;;
6564;SDS011;3316;44.118;27.258;2023-05-14T02:57:42;8.30;;;6.03;;
6564;SDS011;3316;44.118;27.258;2023-05-14T03:00:07;9.50;;;5.90;;
6564;SDS011;3316;44.118;27.258;2023-05-14T03:02:33;8.23;;;6.47;;
6564;SDS011;3316;44.118;27.258;2023-05-14T03:04:59;6.73;;;5.70;;
6564;SDS011;3316;44.118;27.258;2023-05-14T03:07:25;7.33;;;5.50;;
6564;SDS011;3316;44.118;27.258;2023-05-14T03:09:51;9.13;;;5.80;;
6564;SDS011;3316;44.118;27.258;2023-05-14T03:12:16;10.23;;;5.50;;
6564;SDS011;3316;44.118;27.258;2023-05-14T03:14:42;6.73;;;5.27;;
6564;SDS011;3316;44.118;27.258;2023-05-14T03:17:08;11.00;;;5.80;;
6564;SDS011;3316;44.118;27.258;2023-05-14T03:19:33;6.43;;;5.30;;
6564;SDS011;3316;44.118;27.258;2023-05-14T03:21:59;6.77;;;5.20;;
6564;SDS011;3316;44.118;27.258;2023-05-14T03:24:25;8.00;;;5.00;;
6564;SDS011;3316;44.118;27.258;2023-05-14T03:26:50;6.83;;;4.70;;
6564;SDS011;3316;44.118;27.258;2023-05-14T03:29:15;5.80;;;5.20;;
6564;SDS011;3316;44.118;27.258;2023-05-14T03:31:42;8.17;;;6.10;;
6564;SDS011;3316;44.118;27.258;2023-05-14T03:34:07;7.03;;;5.83;;
6564;SDS011;3316;44.118;27.258;2023-05-14T03:36:33;7.03;;;5.00;;
6564;SDS011;3316;44.118;27.258;2023-05-14T03:39:00;7.07;;;5.10;;
6564;SDS011;3316;44.118;27.258;2023-05-14T03:41:26;10.00;;;4.93;;
6564;SDS011;3316;44.118;27.258;2023-05-14T03:43:51;8.93;;;5.03;;
6564;SDS011;3316;44.118;27.258;2023-05-14T03:46:16;6.97;;;5.10;;
6564;SDS011;3316;44.118;27.258;2023-05-14T03:48:42;6.03;;;4.80;;
6564;SDS011;3316;44.118;27.258;2023-05-14T03:51:07;7.27;;;5.47;;
6564;SDS011;3316;44.118;27.258;2023-05-14T03:53:33;7.60;;;5.87;;
6564;SDS011;3316;44.118;27.258;2023-05-14T03:55:58;11.60;;;5.17;;
6564;SDS011;3316;44.118;27.258;2023-05-14T03:58:24;7.87;;;5.30;;
6564;SDS011;3316;44.118;27.258;2023-05-14T04:00:49;8.60;;;5.00;;
6564;SDS011;3316;44.118;27.258;2023-05-14T04:03:15;8.90;;;5.20;;
6564;SDS011;3316;44.118;27.258;2023-05-14T04:05:40;6.20;;;4.90;;
6564;SDS011;3316;44.118;27.258;2023-05-14T04:08:06;9.50;;;6.17;;
6564;SDS011;3316;44.118;27.258;2023-05-14T04:10:31;9.27;;;5.60;;
6564;SDS011;3316;44.118;27.258;2023-05-14T04:12:57;9.53;;;5.10;;
6564;SDS011;3316;44.118;27.258;2023-05-14T04:15:22;7.53;;;4.77;;
6564;SDS011;3316;44.118;27.258;2023-05-14T04:17:48;6.37;;;5.10;;
6564;SDS011;3316;44.118;27.258;2023-05-14T04:20:13;8.37;;;4.97;;
6564;SDS011;3316;44.118;27.258;2023-05-14T04:22:39;9.17;;;5.13;;
6564;SDS011;3316;44.118;27.258;2023-05-14T04:25:04;7.87;;;4.60;;
6564;SDS011;3316;44.118;27.258;2023-05-14T04:27:31;6.50;;;5.07;;
6564;SDS011;3316;44.118;27.258;2023-05-14T04:29:58;7.43;;;4.73;;
6564;SDS011;3316;44.118;27.258;2023-05-14T04:32:23;8.60;;;4.80;;
6564;SDS011;3316;44.118;27.258;2023-05-14T04:34:49;8.03;;;4.83;;
6564;SDS011;3316;44.118;27.258;2023-05-14T04:37:15;9.10;;;4.87;;
6564;SDS011;3316;44.118;27.258;2023-05-14T04:39:40;6.57;;;4.87;;
6564;SDS011;3316;44.118;27.258;2023-05-14T04:42:06;11.87;;;5.80;;
6564;SDS011;3316;44.118;27.258;2023-05-14T04:44:32;5.83;;;4.90;;
6564;SDS011;3316;44.118;27.258;2023-05-14T04:46:59;8.70;;;4.30;;
6564;SDS011;3316;44.118;27.258;2023-05-14T04:49:24;6.15;;;4.03;;
6564;SDS011;3316;44.118;27.258;2023-05-14T04:51:50;5.73;;;4.00;;
6564;SDS011;3316;44.118;27.258;2023-05-14T04:54:15;7.43;;;4.97;;
6564;SDS011;3316;44.118;27.258;2023-05-14T04:56:40;7.33;;;4.10;;
6564;SDS011;3316;44.118;27.258;2023-05-14T04:59:06;5.63;;;4.13;;
6564;SDS011;3316;44.118;27.258;2023-05-14T05:01:31;4.63;;;4.07;;
6564;SDS011;3316;44.118;27.258;2023-05-14T05:03:57;4.53;;;4.10;;
6564;SDS011;3316;44.118;27.258;2023-05-14T05:06:23;4.63;;;3.80;;
6564;SDS011;3316;44.118;27.258;2023-05-14T05:08:48;8.20;;;4.00;;
6564;SDS011;3316;44.118;27.258;2023-05-14T05:11:13;8.77;;;4.20;;
6564;SDS011;3316;44.118;27.258;2023-05-14T05:13:39;5.13;;;4.10;;
6564;SDS011;3316;44.118;27.258;2023-05-14T05:16:05;5.30;;;3.87;;
6564;SDS011;3316;44.118;27.258;2023-05-14T05:18:30;11.00;;;4.07;;
6564;SDS011;3316;44.118;27.258;2023-05-14T05:20:56;7.73;;;3.87;;
6564;SDS011;3316;44.118;27.258;2023-05-14T05:23:21;5.80;;;3.80;;
6564;SDS011;3316;44.118;27.258;2023-05-14T05:25:47;4.40;;;3.50;;
6564;SDS011;3316;44.118;27.258;2023-05-14T05:28:12;6.33;;;3.67;;
6564;SDS011;3316;44.118;27.258;2023-05-14T05:30:38;5.70;;;3.10;;
6564;SDS011;3316;44.118;27.258;2023-05-14T05:33:03;4.57;;;3.30;;
6564;SDS011;3316;44.118;27.258;2023-05-14T05:35:29;5.90;;;2.80;;
6564;SDS011;3316;44.118;27.258;2023-05-14T05:37:54;5.20;;;3.33;;
6564;SDS011;3316;44.118;27.258;2023-05-14T05:40:21;3.63;;;2.80;;
6564;SDS011;3316;44.118;27.258;2023-05-14T05:42:46;3.83;;;3.00;;
6564;SDS011;3316;44.118;27.258;2023-05-14T05:45:12;4.50;;;3.30;;
6564;SDS011;3316;44.118;27.258;2023-05-14T05:47:37;9.50;;;3.97;;
6564;SDS011;3316;44.118;27.258;2023-05-14T05:50:03;8.07;;;3.37;;
6564;SDS011;3316;44.118;27.258;2023-05-14T05:52:29;6.37;;;3.63;;
6564;SDS011;3316;44.118;27.258;2023-05-14T05:54:54;5.07;;;3.53;;
6564;SDS011;3316;44.118;27.258;2023-05-14T05:57:20;5.37;;;3.57;;
6564;SDS011;3316;44.118;27.258;2023-05-14T05:59:46;4.47;;;3.40;;
6564;SDS011;3316;44.118;27.258;2023-05-14T06:02:11;3.90;;;3.20;;
6564;SDS011;3316;44.118;27.258;2023-05-14T06:04:37;5.23;;;3.20;;
6564;SDS011;3316;44.118;27.258;2023-05-14T06:07:02;8.97;;;3.37;;
6564;SDS011;3316;44.118;27.258;2023-05-14T06:09:28;7.97;;;3.80;;
6564;SDS011;3316;44.118;27.258;2023-05-14T06:11:53;5.70;;;3.40;;
6564;SDS011;3316;44.118;27.258;2023-05-14T06:14:19;9.10;;;3.47;;
6564;SDS011;3316;44.118;27.258;2023-05-14T06:16:44;4.88;;;3.10;;
6564;SDS011;3316;44.118;27.258;2023-05-14T06:19:10;9.48;;;4.10;;
6564;SDS011;3316;44.118;27.258;2023-05-14T06:21:35;3.15;;;2.85;;
6564;SDS011;3316;44.118;27.258;2023-05-14T06:24:01;8.60;;;2.92;;
6564;SDS011;3316;44.118;27.258;2023-05-14T06:26:26;3.85;;;3.33;;
6564;SDS011;3316;44.118;27.258;2023-05-14T06:28:52;6.03;;;3.22;;
6564;SDS011;3316;44.118;27.258;2023-05-14T06:31:17;3.85;;;2.78;;
6564;SDS011;3316;44.118;27.258;2023-05-14T06:33:43;3.38;;;2.88;;
6564;SDS011;3316;44.118;27.258;2023-05-14T06:36:09;6.93;;;2.70;;
6564;SDS011;3316;44.118;27.258;2023-05-14T06:38:34;6.32;;;2.97;;
6564;SDS011;3316;44.118;27.258;2023-05-14T06:41:00;3.93;;;2.77;;
6564;SDS011;3316;44.118;27.258;2023-05-14T06:43:25;5.57;;;3.10;;
6564;SDS011;3316;44.118;27.258;2023-05-14T06:45:51;7.13;;;3.20;;
6564;SDS011;3316;44.118;27.258;2023-05-14T06:48:17;8.55;;;3.50;;
6564;SDS011;3316;44.118;27.258;2023-05-14T06:50:43;6.13;;;3.58;;
6564;SDS011;3316;44.118;27.258;2023-05-14T06:53:09;4.32;;;2.58;;
6564;SDS011;3316;44.118;27.258;2023-05-14T06:55:34;4.90;;;3.38;;
6564;SDS011;3316;44.118;27.258;2023-05-14T06:58:00;6.07;;;3.15;;
6564;SDS011;3316;44.118;27.258;2023-05-14T07:00:25;5.22;;;3.03;;
6564;SDS011;3316;44.118;27.258;2023-05-14T07:02:51;5.20;;;2.92;;
6564;SDS011;3316;44.118;27.258;2023-05-14T07:05:17;7.43;;;3.10;;
6564;SDS011;3316;44.118;27.258;2023-05-14T07:07:42;3.22;;;2.92;;
6564;SDS011;3316;44.118;27.258;2023-05-14T07:10:07;6.07;;;3.28;;
6564;SDS011;3316;44.118;27.258;2023-05-14T07:12:33;3.53;;;2.80;;
6564;SDS011;3316;44.118;27.258;2023-05-14T07:14:58;5.28;;;2.78;;
6564;SDS011;3316;44.118;27.258;2023-05-14T07:17:24;8.45;;;4.13;;
6564;SDS011;3316;44.118;27.258;2023-05-14T07:19:49;23.75;;;11.02;;
6564;SDS011;3316;44.118;27.258;2023-05-14T07:22:15;5.22;;;3.03;;
6564;SDS011;3316;44.118;27.258;2023-05-14T07:24:40;4.15;;;3.70;;
6564;SDS011;3316;44.118;27.258;2023-05-14T07:27:06;7.72;;;4.75;;
6564;SDS011;3316;44.118;27.258;2023-05-14T07:29:32;3.75;;;2.83;;
6564;SDS011;3316;44.118;27.258;2023-05-14T07:31:59;16.48;;;3.42;;
6564;SDS011;3316;44.118;27.258;2023-05-14T07:34:25;13.32;;;3.30;;
6564;SDS011;3316;44.118;27.258;2023-05-14T07:36:50;4.20;;;2.60;;
6564;SDS011;3316;44.118;27.258;2023-05-14T07:39:16;4.13;;;2.17;;
6564;SDS011;3316;44.118;27.258;2023-05-14T07:41:41;3.90;;;2.10;;
6564;SDS011;3316;44.118;27.258;2023-05-14T07:44:07;7.22;;;2.65;;
6564;SDS011;3316;44.118;27.258;2023-05-14T07:46:32;5.03;;;3.15;;
6564;SDS011;3316;44.118;27.258;2023-05-14T07:48:58;2.78;;;2.30;;
6564;SDS011;3316;44.118;27.258;2023-05-14T07:51:23;4.45;;;2.47;;
6564;SDS011;3316;44.118;27.258;2023-05-14T07:53:52;3.80;;;2.20;;
6564;SDS011;3316;44.118;27.258;2023-05-14T07:56:18;3.38;;;2.40;;
6564;SDS011;3316;44.118;27.258;2023-05-14T07:58:44;4.57;;;2.50;;
6564;SDS011;3316;44.118;27.258;2023-05-14T08:01:09;5.30;;;2.60;;
6564;SDS011;3316;44.118;27.258;2023-05-14T08:03:36;4.13;;;2.53;;
6564;SDS011;3316;44.118;27.258;2023-05-14T08:06:02;7.55;;;3.22;;
6564;SDS011;3316;44.118;27.258;2023-05-14T08:08:28;5.18;;;2.90;;
6564;SDS011;3316;44.118;27.258;2023-05-14T08:10:54;8.75;;;2.88;;
6564;SDS011;3316;44.118;27.258;2023-05-14T08:13:19;4.28;;;2.50;;
6564;SDS011;3316;44.118;27.258;2023-05-14T08:15:45;3.20;;;2.75;;
6564;SDS011;3316;44.118;27.258;2023-05-14T08:18:11;4.18;;;2.40;;
6564;SDS011;3316;44.118;27.258;2023-05-14T08:20:37;2.92;;;2.45;;
6564;SDS011;3316;44.118;27.258;2023-05-14T08:23:02;3.33;;;2.88;;
6564;SDS011;3316;44.118;27.258;2023-05-14T08:25:27;3.40;;;2.55;;
6564;SDS011;3316;44.118;27.258;2023-05-14T08:27:53;4.53;;;2.33;;
6564;SDS011;3316;44.118;27.258;2023-05-14T08:30:19;8.45;;;2.60;;
6564;SDS011;3316;44.118;27.258;2023-05-14T08:32:45;21.48;;;3.90;;
6564;SDS011;3316;44.118;27.258;2023-05-14T08:35:10;4.13;;;2.33;;
6564;SDS011;3316;44.118;27.258;2023-05-14T08:37:36;3.20;;;2.70;;
6564;SDS011;3316;44.118;27.258;2023-05-14T08:40:01;5.13;;;2.88;;
6564;SDS011;3316;44.118;27.258;2023-05-14T08:42:27;4.75;;;2.50;;
6564;SDS011;3316;44.118;27.258;2023-05-14T08:44:56;4.72;;;2.22;;
6564;SDS011;3316;44.118;27.258;2023-05-14T08:47:26;6.85;;;2.67;;
6564;SDS011;3316;44.118;27.258;2023-05-14T08:50:03;9.63;;;2.85;;
6564;SDS011;3316;44.118;27.258;2023-05-14T08:52:30;4.85;;;2.50;;
6564;SDS011;3316;44.118;27.258;2023-05-14T08:55:01;2.45;;;2.20;;
6564;SDS011;3316;44.118;27.258;2023-05-14T08:57:29;11.10;;;2.47;;
6564;SDS011;3316;44.118;27.258;2023-05-14T08:59:56;4.97;;;2.53;;
6564;SDS011;3316;44.118;27.258;2023-05-14T09:02:26;6.32;;;3.22;;
6564;SDS011;3316;44.118;27.258;2023-05-14T09:04:54;4.35;;;2.50;;
6564;SDS011;3316;44.118;27.258;2023-05-14T09:07:24;6.90;;;2.50;;
6564;SDS011;3316;44.118;27.258;2023-05-14T09:09:50;4.28;;;2.42;;
6564;SDS011;3316;44.118;27.258;2023-05-14T09:12:16;4.70;;;2.65;;
6564;SDS011;3316;44.118;27.258;2023-05-14T09:14:43;3.00;;;2.45;;
6564;SDS011;3316;44.118;27.258;2023-05-14T09:17:09;4.82;;;2.78;;
6564;SDS011;3316;44.118;27.258;2023-05-14T09:19:39;6.03;;;2.55;;
6564;SDS011;3316;44.118;27.258;2023-05-14T09:22:12;4.97;;;2.40;;
6564;SDS011;3316;44.118;27.258;2023-05-14T09:24:39;5.53;;;2.30;;
6564;SDS011;3316;44.118;27.258;2023-05-14T09:27:06;4.70;;;2.58;;
6564;SDS011;3316;44.118;27.258;2023-05-14T09:29:32;3.22;;;2.55;;
6564;SDS011;3316;44.118;27.258;2023-05-14T09:31:58;3.90;;;2.60;;
6564;SDS011;3316;44.118;27.258;2023-05-14T09:34:29;4.82;;;2.88;;
6564;SDS011;3316;44.118;27.258;2023-05-14T09:36:56;4.65;;;2.55;;
6564;SDS011;3316;44.118;27.258;2023-05-14T09:39:22;3.90;;;2.60;;
6564;SDS011;3316;44.118;27.258;2023-05-14T09:41:49;3.22;;;2.20;;
6564;SDS011;3316;44.118;27.258;2023-05-14T09:44:16;5.32;;;2.42;;
6564;SDS011;3316;44.118;27.258;2023-05-14T09:46:41;5.30;;;2.30;;
6564;SDS011;3316;44.118;27.258;2023-05-14T09:49:07;2.50;;;1.80;;
6564;SDS011;3316;44.118;27.258;2023-05-14T09:51:32;6.78;;;2.83;;
6564;SDS011;3316;44.118;27.258;2023-05-14T09:53:57;5.38;;;2.33;;
6564;SDS011;3316;44.118;27.258;2023-05-14T09:56:24;7.57;;;2.35;;
6564;SDS011;3316;44.118;27.258;2023-05-14T09:58:50;3.08;;;2.78;;
6564;SDS011;3316;44.118;27.258;2023-05-14T10:01:16;3.97;;;2.13;;
6564;SDS011;3316;44.118;27.258;2023-05-14T10:03:43;5.50;;;2.47;;
6564;SDS011;3316;44.118;27.258;2023-05-14T10:06:09;2.58;;;2.15;;
6564;SDS011;3316;44.118;27.258;2023-05-14T10:08:39;3.15;;;2.67;;
6564;SDS011;3316;44.118;27.258;2023-05-14T10:11:11;3.72;;;1.92;;
6564;SDS011;3316;44.118;27.258;2023-05-14T10:13:40;3.53;;;2.40;;
6564;SDS011;3316;44.118;27.258;2023-05-14T10:18:46;4.53;;;2.33;;
6564;SDS011;3316;44.118;27.258;2023-05-14T10:21:18;4.40;;;2.80;;
6564;SDS011;3316;44.118;27.258;2023-05-14T10:23:44;3.83;;;2.30;;
6564;SDS011;3316;44.118;27.258;2023-05-14T10:26:10;4.32;;;2.17;;
6564;SDS011;3316;44.118;27.258;2023-05-14T10:28:37;4.03;;;2.13;;
6564;SDS011;3316;44.118;27.258;2023-05-14T10:31:02;23.45;;;3.75;;
6564;SDS011;3316;44.118;27.258;2023-05-14T10:33:28;7.80;;;2.40;;
6564;SDS011;3316;44.118;27.258;2023-05-14T10:35:58;2.63;;;2.20;;
6564;SDS011;3316;44.118;27.258;2023-05-14T10:38:34;2.78;;;2.10;;
6564;SDS011;3316;44.118;27.258;2023-05-14T10:41:03;2.72;;;2.15;;
6564;SDS011;3316;44.118;27.258;2023-05-14T10:43:35;9.35;;;2.10;;
6564;SDS011;3316;44.118;27.258;2023-05-14T10:46:02;4.18;;;2.80;;
6564;SDS011;3316;44.118;27.258;2023-05-14T10:48:29;4.28;;;2.28;;
6564;SDS011;3316;44.118;27.258;2023-05-14T10:50:55;4.68;;;2.35;;
6564;SDS011;3316;44.118;27.258;2023-05-14T10:53:31;2.83;;;2.05;;
6564;SDS011;3316;44.118;27.258;2023-05-14T10:56:06;5.13;;;2.20;;
6564;SDS011;3316;44.118;27.258;2023-05-14T10:58:36;3.80;;;2.30;;
6564;SDS011;3316;44.118;27.258;2023-05-14T11:01:04;3.00;;;2.45;;
6564;SDS011;3316;44.118;27.258;2023-05-14T11:03:31;4.07;;;2.60;;
6564;SDS011;3316;44.118;27.258;2023-05-14T11:06:02;8.10;;;2.53;;
6564;SDS011;3316;44.118;27.258;2023-05-14T11:08:28;5.00;;;2.08;;
6564;SDS011;3316;44.118;27.258;2023-05-14T11:10:55;3.38;;;1.90;;
6564;SDS011;3316;44.118;27.258;2023-05-14T11:13:21;3.53;;;2.00;;
6564;SDS011;3316;44.118;27.258;2023-05-14T11:15:46;5.70;;;2.20;;
6564;SDS011;3316;44.118;27.258;2023-05-14T11:18:13;8.15;;;2.40;;
6564;SDS011;3316;44.118;27.258;2023-05-14T11:20:51;3.88;;;1.98;;
6564;SDS011;3316;44.118;27.258;2023-05-14T11:23:18;2.95;;;2.03;;
6564;SDS011;3316;44.118;27.258;2023-05-14T11:25:45;2.78;;;1.85;;
6564;SDS011;3316;44.118;27.258;2023-05-14T11:28:12;4.20;;;2.17;;
6564;SDS011;3316;44.118;27.258;2023-05-14T11:30:37;4.13;;;3.00;;
6564;SDS011;3316;44.118;27.258;2023-05-14T11:33:03;4.22;;;3.05;;
6564;SDS011;3316;44.118;27.258;2023-05-14T11:35:29;8.05;;;3.10;;
6564;SDS011;3316;44.118;27.258;2023-05-14T11:37:54;4.53;;;2.30;;
6564;SDS011;3316;44.118;27.258;2023-05-14T11:40:20;4.45;;;2.60;;
6564;SDS011;3316;44.118;27.258;2023-05-14T11:42:46;7.82;;;2.83;;
6564;SDS011;3316;44.118;27.258;2023-05-14T11:45:22;4.50;;;2.30;;
6564;SDS011;3316;44.118;27.258;2023-05-14T11:47:50;4.30;;;2.00;;
6564;SDS011;3316;44.118;27.258;2023-05-14T11:50:16;4.22;;;2.10;;
6564;SDS011;3316;44.118;27.258;2023-05-14T11:52:42;4.07;;;2.10;;
6564;SDS011;3316;44.118;27.258;2023-05-14T11:55:10;2.90;;;2.28;;
6564;SDS011;3316;44.118;27.258;2023-05-14T11:57:36;2.50;;;2.28;;
6564;SDS011;3316;44.118;27.258;2023-05-14T12:00:02;2.97;;;2.20;;
6564;SDS011;3316;44.118;27.258;2023-05-14T12:02:30;5.03;;;2.55;;
6564;SDS011;3316;44.118;27.258;2023-05-14T12:04:55;3.00;;;2.33;;
6564;SDS011;3316;44.118;27.258;2023-05-14T12:07:21;6.55;;;2.38;;
6564;SDS011;3316;44.118;27.258;2023-05-14T12:09:47;4.07;;;2.50;;
6564;SDS011;3316;44.118;27.258;2023-05-14T12:12:13;7.03;;;2.50;;
6564;SDS011;3316;44.118;27.258;2023-05-14T12:14:40;3.35;;;2.50;;
6564;SDS011;3316;44.118;27.258;2023-05-14T12:17:14;2.47;;;2.28;;
6564;SDS011;3316;44.118;27.258;2023-05-14T12:19:42;2.58;;;2.30;;
6564;SDS011;3316;44.118;27.258;2023-05-14T12:22:13;4.40;;;2.40;;
6564;SDS011;3316;44.118;27.258;2023-05-14T12:24:41;6.47;;;2.50;;
6564;SDS011;3316;44.118;27.258;2023-05-14T12:27:08;3.08;;;2.13;;
6564;SDS011;3316;44.118;27.258;2023-05-14T12:29:34;2.47;;;2.15;;
6564;SDS011;3316;44.118;27.258;2023-05-14T12:32:02;5.72;;;2.50;;
6564;SDS011;3316;44.118;27.258;2023-05-14T12:34:32;4.85;;;2.20;;
6564;SDS011;3316;44.118;27.258;2023-05-14T12:36:58;9.68;;;4.15;;
6564;SDS011;3316;44.118;27.258;2023-05-14T12:39:23;3.72;;;2.78;;
6564;SDS011;3316;44.118;27.258;2023-05-14T12:41:49;4.05;;;2.42;;
6564;SDS011;3316;44.118;27.258;2023-05-14T12:44:14;2.30;;;2.10;;
6564;SDS011;3316;44.118;27.258;2023-05-14T12:46:39;6.80;;;2.50;;
6564;SDS011;3316;44.118;27.258;2023-05-14T12:49:05;17.25;;;6.30;;
6564;SDS011;3316;44.118;27.258;2023-05-14T12:51:31;6.75;;;3.33;;
6564;SDS011;3316;44.118;27.258;2023-05-14T12:53:56;13.60;;;5.85;;
6564;SDS011;3316;44.118;27.258;2023-05-14T12:56:21;10.65;;;3.83;;
6564;SDS011;3316;44.118;27.258;2023-05-14T12:58:52;5.10;;;3.13;;
6564;SDS011;3316;44.118;27.258;2023-05-14T13:01:18;9.27;;;2.95;;
6564;SDS011;3316;44.118;27.258;2023-05-14T13:03:43;5.30;;;2.88;;
6564;SDS011;3316;44.118;27.258;2023-05-14T13:06:09;9.70;;;3.22;;
6564;SDS011;3316;44.118;27.258;2023-05-14T13:08:34;4.85;;;2.75;;
6564;SDS011;3316;44.118;27.258;2023-05-14T13:11:00;5.90;;;3.10;;
6564;SDS011;3316;44.118;27.258;2023-05-14T13:13:25;4.45;;;2.70;;
6564;SDS011;3316;44.118;27.258;2023-05-14T13:15:51;8.93;;;2.65;;
6564;SDS011;3316;44.118;27.258;2023-05-14T13:18:17;7.57;;;2.72;;
6564;SDS011;3316;44.118;27.258;2023-05-14T13:20:43;4.63;;;3.05;;
6564;SDS011;3316;44.118;27.258;2023-05-14T13:23:10;5.30;;;3.22;;
6564;SDS011;3316;44.118;27.258;2023-05-14T13:25:35;4.53;;;3.13;;
6564;SDS011;3316;44.118;27.258;2023-05-14T13:28:01;5.97;;;2.80;;
6564;SDS011;3316;44.118;27.258;2023-05-14T13:30:26;3.55;;;2.80;;
6564;SDS011;3316;44.118;27.258;2023-05-14T13:32:52;5.50;;;2.95;;
6564;SDS011;3316;44.118;27.258;2023-05-14T13:35:17;9.73;;;2.30;;
6564;SDS011;3316;44.118;27.258;2023-05-14T13:37:43;7.15;;;3.00;;
6564;SDS011;3316;44.118;27.258;2023-05-14T13:40:09;4.45;;;2.70;;
6564;SDS011;3316;44.118;27.258;2023-05-14T13:42:35;5.25;;;2.85;;
6564;SDS011;3316;44.118;27.258;2023-05-14T13:45:01;3.53;;;2.40;;
6564;SDS011;3316;44.118;27.258;2023-05-14T13:47:28;4.65;;;3.05;;
6564;SDS011;3316;44.118;27.258;2023-05-14T13:49:53;4.32;;;2.92;;
6564;SDS011;3316;44.118;27.258;2023-05-14T13:52:19;5.35;;;2.90;;
6564;SDS011;3316;44.118;27.258;2023-05-14T13:54:45;3.92;;;2.83;;
6564;SDS011;3316;44.118;27.258;2023-05-14T13:57:11;5.35;;;3.05;;
6564;SDS011;3316;44.118;27.258;2023-05-14T13:59:37;4.93;;;3.08;;
6564;SDS011;3316;44.118;27.258;2023-05-14T14:02:03;14.18;;;7.35;;
6564;SDS011;3316;44.118;27.258;2023-05-14T14:04:29;4.07;;;2.92;;
6564;SDS011;3316;44.118;27.258;2023-05-14T14:06:54;4.43;;;2.85;;
6564;SDS011;3316;44.118;27.258;2023-05-14T14:09:20;7.55;;;3.20;;
6564;SDS011;3316;44.118;27.258;2023-05-14T14:11:46;6.07;;;2.80;;
6564;SDS011;3316;44.118;27.258;2023-05-14T14:14:11;6.20;;;3.17;;
6564;SDS011;3316;44.118;27.258;2023-05-14T14:16:37;5.47;;;2.78;;
6564;SDS011;3316;44.118;27.258;2023-05-14T14:19:02;7.93;;;2.90;;
6564;SDS011;3316;44.118;27.258;2023-05-14T14:21:28;13.20;;;3.13;;
6564;SDS011;3316;44.118;27.258;2023-05-14T14:23:53;7.32;;;2.65;;
6564;SDS011;3316;44.118;27.258;2023-05-14T14:26:19;3.33;;;2.85;;
6564;SDS011;3316;44.118;27.258;2023-05-14T14:28:45;5.03;;;2.78;;
6564;SDS011;3316;44.118;27.258;2023-05-14T14:31:10;4.80;;;2.70;;
6564;SDS011;3316;44.118;27.258;2023-05-14T14:33:36;4.47;;;2.67;;
6564;SDS011;3316;44.118;27.258;2023-05-14T14:36:02;4.68;;;2.85;;
6564;SDS011;3316;44.118;27.258;2023-05-14T14:38:28;6.07;;;2.95;;
6564;SDS011;3316;44.118;27.258;2023-05-14T14:40:53;9.38;;;3.05;;
6564;SDS011;3316;44.118;27.258;2023-05-14T14:43:19;7.93;;;3.10;;
6564;SDS011;3316;44.118;27.258;2023-05-14T14:45:44;4.93;;;2.95;;
6564;SDS011;3316;44.118;27.258;2023-05-14T14:51:05;7.53;;;2.95;;
6564;SDS011;3316;44.118;27.258;2023-05-14T14:53:31;5.63;;;2.60;;
6564;SDS011;3316;44.118;27.258;2023-05-14T14:55:58;8.50;;;2.88;;
6564;SDS011;3316;44.118;27.258;2023-05-14T14:58:24;7.18;;;2.70;;
6564;SDS011;3316;44.118;27.258;2023-05-14T15:00:51;6.82;;;3.20;;
6564;SDS011;3316;44.118;27.258;2023-05-14T15:03:19;7.75;;;3.25;;
6564;SDS011;3316;44.118;27.258;2023-05-14T15:05:45;3.70;;;3.08;;